Zeltweg, Austria
Current Conditions -  °F | °C
As of 8:50 PM on Thursday 27 Nov 2014 (Local Time) from LOXZ Reporting Station
Overcast Overcast  
Wind Chill: 32°   Ceiling: 2500
Heat Index: 36°   Visibility: 6mi
Dew Point: 32°   Wind: 5mph
Humidity: 87%   Direction: 70°ENE
Pressure: 29.91"   Gusts: NA
Location:  47.19°N, 14.75°E
Report Text: LOXZ 271850Z 07004KT 10KM FEW010ST OVC025SC 02/00 Q1013 RMKOVC
Loading
Personal Weather Stations






























Interactive Weather Map New forecast layout! Learn more

10-Day Weather Forecast

Advertisements
Track Severe Weather on mobile